Atlanta, Texas
Current Conditions -  °F | °C
As of 12:53 PM on Saturday 25 Oct 2014 (Local Time) from KTXK Reporting Station
Clear Clear  
Wind Chill: 81°   Ceiling: Unl
Heat Index: 82°   Visibility: 10mi
Dew Point: 63°   Wind: 9mph
Humidity: 54%   Direction: 220°SW
Pressure: 30.12"   Gusts: NA
Location:  33.12°N, 94.17°W
Report Text: KTXK 251753Z 22008KT 10SM CLR 27/17 A3012 RMK AO2 SLP197 T02720172 10272 20144 58014
Loading
Personal Weather Stations






























Interactive Weather Map
Tropical Storm Tracking
New forecast layout! Learn more

10-Day Weather Forecast

Advertisements
Track Severe Weather on mobile